Stevens Point, WI

8:01 PM CDT on September 30, 2014 (GMT -0500)
Stevens Point Municipal | Change Station
CLOSE
Current Station
Airport
Location: Stevens Point,
Elevation: 1109 ft
Nearby Weather Stations

Elev 1109 ft 44.54 °N, 89.53 °W | Updated 26 minutes ago

Overcast
Overcast
45 °F
Feels Like 41 °F
N
7
Wind Variable Wind from SE

Today
High -- | Low -- °F
--% Chance of Precip.
Yesterday
High -- | Low -- °F
Precip. -- in
6:54 AM 6:40 PM
Waxing Crescent, 42% visible
Pressure 30.04 in
Visibility 10.0 miles
Clouds Overcast 1200 ft
Windchill 41 °F
Dew Point 40 °F
Humidity 85%
Rainfall 0.00 in
Snow Depth Not available.
UV 0 out of 12
Pollen 1.60 out of 12
Air Quality Not available.
Flu Activity Not available.
METAR KSTE 010035Z AUTO 14006KT 10SM OVC012 07/05 A3004 RMK AO2 T00700046

More Conditions Fewer Conditions

Pressure 30.04 in
Visibility 10.0 miles
Clouds Overcast 1200 ft
Windchill 41 °F
Dew Point 40 °F
Humidity 85%
Rainfall 0.00 in
Snow Depth Not available.
UV 0 out of 12
Pollen 1.60 out of 12
Air Quality Not available.
Flu Activity Not available.
METAR KSTE 010035Z AUTO 14006KT 10SM OVC012 07/05 A3004 RMK AO2 T00700046

More Conditions Fewer Conditions

10-Day Weather Forecast

Almanac

Astronomy

Sep. 30, 2014 Rise Set
Actual Time 6:54 AM CDT 6:40 PM CDT
Civil Twilight 6:25 AM CDT 7:09 PM CDT
Nautical Twilight 5:52 AM CDT 7:43 PM CDT
Astronomical Twilight 5:17 AM CDT 8:17 PM CDT
Moon 1:13 PM CDT (9/30) 11:00 PM CDT (9/30)
Length of Visible Light 12h 43m
Length of Day
11h 45m
Tomorrow will be 3m 3s shorter.
Waxing Crescent, 42% of the Moon is Illuminated
Today
Waxing Crescent
Oct 1
First Quarter
Oct 8
Full
Oct 15
Last Quarter
Oct 23
New

Today's Extremes

State Highs State Lows

Community

WunderPhotos

Upload Photos

1,757,805 photos uploaded!

Nearby

Snow Depth

Station Depth Elevation
No new snow has been reported.

Earthquake Activity

City Distance Mag. Time & Date
No recent earthquake activity has been reported nearby.
Minimum magnitude displayed is 2.5.

Coastal Water Temperatures

Place Temperature
No Stations Reporting

Nearby Weather Stations